createdAt,value
2018-11-02T00:01:51.252Z,91.60
2018-11-02T00:04:20.083Z,91.80
2018-11-02T00:06:49.233Z,91.80
2018-11-02T00:09:18.379Z,91.80
2018-11-02T00:11:47.381Z,92.00
2018-11-02T00:14:16.467Z,91.90
2018-11-02T00:16:45.438Z,92.00
2018-11-02T00:19:14.260Z,92.00
2018-11-02T00:21:43.079Z,91.90
2018-11-02T00:24:12.167Z,92.00
2018-11-02T00:26:41.027Z,92.00
2018-11-02T00:29:09.818Z,92.00
2018-11-02T00:31:38.941Z,92.00
2018-11-02T00:34:07.530Z,91.90
2018-11-02T00:36:36.272Z,91.90
2018-11-02T00:39:06.051Z,91.90
2018-11-02T00:41:35.473Z,91.80
2018-11-02T00:44:04.617Z,91.60
2018-11-02T00:46:33.677Z,91.50
2018-11-02T00:49:03.436Z,91.50
2018-11-02T00:51:32.411Z,91.40
2018-11-02T00:54:01.325Z,91.40
2018-11-02T00:56:30.579Z,91.30
2018-11-02T00:58:59.595Z,91.30
2018-11-02T01:01:28.615Z,91.10
2018-11-02T01:03:57.696Z,91.20
2018-11-02T01:06:26.472Z,91.10
2018-11-02T01:08:55.072Z,91.20
2018-11-02T01:11:24.238Z,91.10
2018-11-02T01:13:53.303Z,91.10
2018-11-02T01:16:22.764Z,91.00
2018-11-02T01:18:51.850Z,91.00
2018-11-02T01:21:21.193Z,90.90
2018-11-02T01:23:50.004Z,90.70
2018-11-02T01:26:19.672Z,90.60
2018-11-02T01:28:48.325Z,90.60
2018-11-02T01:31:17.226Z,90.50
2018-11-02T01:33:46.713Z,90.50
2018-11-02T01:36:15.875Z,90.50
2018-11-02T01:38:44.671Z,90.50
2018-11-02T01:41:13.896Z,90.50
2018-11-02T01:43:43.289Z,90.50
2018-11-02T01:46:12.199Z,90.40
2018-11-02T01:48:41.271Z,90.40
2018-11-02T01:51:10.146Z,90.40
2018-11-02T01:53:39.052Z,90.20
2018-11-02T01:56:07.910Z,89.90
2018-11-02T01:58:36.989Z,90.10
2018-11-02T02:01:06.243Z,90.10
2018-11-02T02:03:35.281Z,90.10
2018-11-02T02:06:03.937Z,90.10
2018-11-02T02:08:33.501Z,90.00
2018-11-02T02:11:02.483Z,89.70
2018-11-02T02:13:31.244Z,89.50
2018-11-02T02:16:00.869Z,89.40
2018-11-02T02:18:30.073Z,89.40
2018-11-02T02:20:59.583Z,89.50
2018-11-02T02:23:28.591Z,89.30
2018-11-02T02:25:59.017Z,89.50
2018-11-02T02:28:28.317Z,89.60
2018-11-02T02:30:57.236Z,90.00
2018-11-02T02:33:26.512Z,90.00
2018-11-02T02:35:55.657Z,90.10
2018-11-02T02:38:24.682Z,90.00
2018-11-02T02:40:53.729Z,90.00
2018-11-02T02:43:23.034Z,90.00
2018-11-02T02:45:52.318Z,89.90
2018-11-02T02:48:21.174Z,90.00
2018-11-02T02:50:50.018Z,89.40
2018-11-02T02:53:19.200Z,89.20
2018-11-02T02:55:48.032Z,90.10
2018-11-02T02:58:17.300Z,89.90
2018-11-02T03:00:46.162Z,89.60
2018-11-02T03:03:15.666Z,89.80
2018-11-02T03:05:44.874Z,89.40
2018-11-02T03:08:15.376Z,89.30
2018-11-02T03:10:44.865Z,89.00
2018-11-02T03:13:13.562Z,88.60
2018-11-02T03:15:42.236Z,88.00
2018-11-02T03:18:11.106Z,88.30
2018-11-02T03:20:40.258Z,88.70
2018-11-02T03:23:09.356Z,90.30
2018-11-02T03:25:38.202Z,90.50
2018-11-02T03:28:07.267Z,90.80
2018-11-02T03:30:36.152Z,91.00
2018-11-02T03:33:05.255Z,91.00
2018-11-02T03:35:33.975Z,91.10
2018-11-02T03:41:34.766Z,91.20
2018-11-02T03:44:03.929Z,91.00
2018-11-02T03:46:32.610Z,91.40
2018-11-02T03:49:01.593Z,91.10
2018-11-02T03:51:30.765Z,91.00
2018-11-02T03:54:30.628Z,90.90
2018-11-02T03:56:59.667Z,91.00
2018-11-02T03:59:28.635Z,91.10
2018-11-02T04:01:57.473Z,91.10
2018-11-02T04:04:26.417Z,91.20
2018-11-02T04:06:56.210Z,91.10
2018-11-02T04:09:25.128Z,91.20
2018-11-02T04:11:54.040Z,91.20
2018-11-02T04:14:23.021Z,91.50
2018-11-02T04:16:51.663Z,91.30
2018-11-02T04:19:20.834Z,91.60
2018-11-02T04:21:50.099Z,91.20
2018-11-02T04:24:19.295Z,91.30
2018-11-02T04:26:48.587Z,91.20
2018-11-02T04:29:17.396Z,91.40
2018-11-02T04:31:46.259Z,91.50
2018-11-02T04:34:16.041Z,91.30
2018-11-02T04:36:44.812Z,91.20
2018-11-02T04:39:14.956Z,91.10
2018-11-02T04:41:43.489Z,90.90
2018-11-02T04:44:12.672Z,90.90
2018-11-02T04:46:41.543Z,90.90
2018-11-02T04:49:10.379Z,91.00
2018-11-02T04:51:39.378Z,91.20
2018-11-02T04:54:09.253Z,91.10
2018-11-02T04:56:38.773Z,91.10
2018-11-02T04:59:08.883Z,91.10
2018-11-02T05:01:37.729Z,91.00
2018-11-02T05:04:06.562Z,90.70
2018-11-02T05:06:35.756Z,90.90
2018-11-02T05:09:06.838Z,90.90
2018-11-02T05:11:35.942Z,90.80
2018-11-02T05:14:04.983Z,90.70
2018-11-02T05:16:35.425Z,90.50
2018-11-02T05:19:04.438Z,90.60
2018-11-02T05:21:35.272Z,90.40
2018-11-02T05:24:04.268Z,90.40
2018-11-02T05:26:33.778Z,90.30
2018-11-02T05:29:02.530Z,90.80
2018-11-02T05:31:31.573Z,90.40
2018-11-02T05:34:00.262Z,90.40
2018-11-02T05:36:29.059Z,90.40
2018-11-02T05:38:57.862Z,90.30
2018-11-02T05:41:26.529Z,90.40
2018-11-02T05:43:55.569Z,90.40
2018-11-02T05:46:24.513Z,90.40
2018-11-02T05:48:53.436Z,90.30
2018-11-02T05:51:23.536Z,90.50
2018-11-02T05:53:52.357Z,90.60
2018-11-02T05:56:21.702Z,90.40
2018-11-02T05:58:50.760Z,90.30
2018-11-02T06:01:20.407Z,90.20
2018-11-02T06:03:49.118Z,90.10
2018-11-02T06:06:17.730Z,90.40
2018-11-02T06:08:46.623Z,90.40
2018-11-02T06:11:15.460Z,90.00
2018-11-02T06:13:45.306Z,90.00
2018-11-02T06:16:14.403Z,90.10
2018-11-02T06:18:44.341Z,90.00
2018-11-02T06:21:13.113Z,89.80
2018-11-02T06:23:56.360Z,89.40
2018-11-02T06:26:26.109Z,90.00
2018-11-02T06:29:00.509Z,89.60
2018-11-02T06:31:31.408Z,89.60
2018-11-02T06:34:01.922Z,89.50
2018-11-02T06:36:31.281Z,90.10
2018-11-02T06:39:00.510Z,89.40
2018-11-02T06:41:29.768Z,89.70
2018-11-02T06:43:58.565Z,89.90
2018-11-02T06:46:27.724Z,89.70
2018-11-02T06:49:03.887Z,89.70
2018-11-02T06:51:32.891Z,89.50
2018-11-02T06:54:01.832Z,90.00
2018-11-02T06:56:31.549Z,89.60
2018-11-02T06:59:00.895Z,89.80
2018-11-02T07:01:30.838Z,90.00
2018-11-02T07:03:59.625Z,90.00
2018-11-02T07:06:29.356Z,90.20
2018-11-02T07:08:58.421Z,90.30
2018-11-02T07:11:27.610Z,90.20
2018-11-02T07:13:57.011Z,90.30
2018-11-02T07:16:26.167Z,90.30
2018-11-02T07:18:55.440Z,90.30
2018-11-02T07:21:25.491Z,90.30
2018-11-02T07:23:54.501Z,90.30
2018-11-02T07:26:24.969Z,90.30
2018-11-02T07:28:56.382Z,90.30
2018-11-02T07:31:25.940Z,90.30
2018-11-02T07:33:55.124Z,90.40
2018-11-02T07:36:29.620Z,90.30
2018-11-02T07:39:00.575Z,90.20
2018-11-02T07:41:29.214Z,90.00
2018-11-02T07:43:58.069Z,89.90
2018-11-02T07:46:27.088Z,90.10
2018-11-02T07:48:56.197Z,90.00
2018-11-02T07:51:29.895Z,89.90
2018-11-02T07:53:58.881Z,89.90
2018-11-02T07:56:27.940Z,89.40
2018-11-02T07:58:57.048Z,89.00
2018-11-02T08:01:26.538Z,88.80
2018-11-02T08:03:55.600Z,89.10
2018-11-02T08:06:24.486Z,88.00
2018-11-02T08:08:54.128Z,87.00
2018-11-02T08:11:23.706Z,86.80
2018-11-02T08:13:52.895Z,86.70
2018-11-02T08:16:22.102Z,86.80
2018-11-02T08:18:53.152Z,87.30
2018-11-02T08:21:24.858Z,86.10
2018-11-02T08:23:54.158Z,86.30
2018-11-02T08:26:24.144Z,85.30
2018-11-02T08:28:53.650Z,84.60
2018-11-02T08:31:22.735Z,85.60
2018-11-02T08:33:51.966Z,84.70
2018-11-02T08:36:21.374Z,84.10
2018-11-02T08:38:50.915Z,82.60
2018-11-02T08:41:19.939Z,83.20
2018-11-02T08:43:48.873Z,83.00
2018-11-02T08:46:18.192Z,82.90
2018-11-02T08:48:46.798Z,82.70
2018-11-02T08:51:16.664Z,81.00
2018-11-02T08:53:47.669Z,81.70
2018-11-02T08:56:17.007Z,81.90
2018-11-02T08:58:46.159Z,83.00
2018-11-02T09:01:16.852Z,85.00
2018-11-02T09:03:45.972Z,85.60
2018-11-02T09:06:14.948Z,84.00
2018-11-02T09:08:43.711Z,84.80
2018-11-02T09:11:16.424Z,84.10
2018-11-02T09:13:45.078Z,81.80
2018-11-02T09:16:14.120Z,79.70
2018-11-02T09:18:46.605Z,79.50
2018-11-02T09:21:15.624Z,77.40
2018-11-02T09:23:44.919Z,77.60
2018-11-02T09:26:13.806Z,78.80
2018-11-02T09:28:42.662Z,79.40
2018-11-02T09:31:18.367Z,79.50
2018-11-02T09:33:47.453Z,78.80
2018-11-02T09:36:17.883Z,79.10
2018-11-02T09:38:47.056Z,77.70
2018-11-02T09:41:16.303Z,78.40
2018-11-02T09:43:45.557Z,78.70
2018-11-02T09:46:14.648Z,78.30
2018-11-02T09:48:44.650Z,77.10
2018-11-02T09:51:13.915Z,76.80
2018-11-02T09:53:43.121Z,73.40
2018-11-02T09:56:12.566Z,72.00
2018-11-02T09:58:43.909Z,70.60
2018-11-02T10:01:13.249Z,72.40
2018-11-02T10:03:44.171Z,73.40
2018-11-02T10:06:13.339Z,73.60
2018-11-02T10:08:42.143Z,70.70
2018-11-02T10:11:11.396Z,69.00
2018-11-02T10:13:40.044Z,71.40
2018-11-02T10:16:10.401Z,67.20
2018-11-02T10:18:39.568Z,67.80
2018-11-02T10:21:08.832Z,66.40
2018-11-02T10:23:40.795Z,60.30
2018-11-02T10:26:10.142Z,54.00
2018-11-02T10:28:38.804Z,55.10
2018-11-02T10:31:08.095Z,59.90
2018-11-02T10:33:37.098Z,61.20
2018-11-02T10:36:06.696Z,57.20
2018-11-02T10:38:35.697Z,60.90
2018-11-02T10:41:09.305Z,57.00
2018-11-02T10:43:38.626Z,57.40
2018-11-02T10:46:08.192Z,57.50
2018-11-02T10:48:38.070Z,54.20
2018-11-02T10:51:07.744Z,57.00
2018-11-02T10:53:37.403Z,54.30
2018-11-02T10:56:06.532Z,51.30
2018-11-02T10:58:35.911Z,51.70
2018-11-02T11:01:10.239Z,51.20
2018-11-02T11:03:39.792Z,53.50
2018-11-02T11:06:08.790Z,50.60
2018-11-02T11:08:38.346Z,43.00
2018-11-02T11:11:09.033Z,44.30
2018-11-02T11:13:38.694Z,41.80
2018-11-02T11:16:07.182Z,37.90
2018-11-02T11:18:36.805Z,40.30
2018-11-02T11:21:06.176Z,37.90
2018-11-02T11:23:35.315Z,35.00
2018-11-02T11:26:04.863Z,36.30
2018-11-02T11:28:33.909Z,34.10
2018-11-02T11:31:02.937Z,30.10
2018-11-02T11:33:33.352Z,34.20
2018-11-02T11:36:03.654Z,34.80
2018-11-02T11:38:34.177Z,37.30
2018-11-02T11:41:03.760Z,37.20
2018-11-02T11:43:33.995Z,37.20
2018-11-02T11:46:03.334Z,35.90
2018-11-02T11:48:33.027Z,37.20
2018-11-02T11:51:02.096Z,38.70
2018-11-02T11:53:31.210Z,40.40
2018-11-02T11:56:00.011Z,43.80
2018-11-02T11:58:29.299Z,49.40
2018-11-02T12:00:58.319Z,46.70
2018-11-02T12:03:27.597Z,43.80
2018-11-02T12:05:56.762Z,41.30
2018-11-02T12:08:25.838Z,33.50
2018-11-02T12:11:00.016Z,36.50
2018-11-02T12:13:29.065Z,37.70
2018-11-02T12:15:58.324Z,38.50
2018-11-02T12:18:27.121Z,39.40
2018-11-02T12:20:56.114Z,40.90
2018-11-02T12:23:25.425Z,41.90
2018-11-02T12:25:54.321Z,42.50
2018-11-02T12:28:23.884Z,43.80
2018-11-02T12:30:55.027Z,44.00
2018-11-02T12:33:25.957Z,44.60
2018-11-02T12:35:55.425Z,45.90
2018-11-02T12:38:25.225Z,46.80
2018-11-02T12:40:54.367Z,47.50
2018-11-02T12:43:23.892Z,47.90
2018-11-02T12:45:52.943Z,48.30
2018-11-02T12:48:22.193Z,48.50
2018-11-02T12:53:19.997Z,48.80
2018-11-02T12:55:49.265Z,48.40
2018-11-02T12:58:18.883Z,48.70
2018-11-02T13:00:48.557Z,49.30
2018-11-02T13:03:17.405Z,49.70
2018-11-02T13:05:47.015Z,50.30
2018-11-02T13:08:16.496Z,50.20
2018-11-02T13:10:45.421Z,47.70
2018-11-02T13:13:14.248Z,44.30
2018-11-02T13:15:43.475Z,43.10
2018-11-02T13:18:13.413Z,42.40
2018-11-02T13:20:45.618Z,42.30
2018-11-02T13:23:14.960Z,41.90
2018-11-02T13:25:44.049Z,41.20
2018-11-02T13:28:13.081Z,42.00
2018-11-02T13:30:42.305Z,43.00
2018-11-02T13:33:10.979Z,42.50
2018-11-02T13:35:39.824Z,43.00
2018-11-02T13:38:08.460Z,44.20
2018-11-02T13:40:38.008Z,44.00
2018-11-02T13:43:07.949Z,40.80
2018-11-02T13:45:38.309Z,39.30
2018-11-02T13:48:08.383Z,40.90
2018-11-02T13:50:37.115Z,38.90
2018-11-02T13:53:07.607Z,38.70
2018-11-02T13:55:37.503Z,39.30
2018-11-02T13:58:06.889Z,41.10
2018-11-02T14:00:35.968Z,42.20
2018-11-02T14:03:06.110Z,42.10
2018-11-02T14:05:35.761Z,39.50
2018-11-02T14:08:05.039Z,40.00
2018-11-02T14:10:35.696Z,39.80
2018-11-02T14:13:04.765Z,42.40
2018-11-02T14:15:33.837Z,43.20
2018-11-02T14:18:03.359Z,43.30
2018-11-02T14:20:32.876Z,44.60
2018-11-02T14:23:02.994Z,45.60
2018-11-02T14:25:32.364Z,45.90
2018-11-02T14:28:05.996Z,46.40
2018-11-02T14:30:35.032Z,45.60
2018-11-02T14:33:04.470Z,46.20
2018-11-02T14:35:34.088Z,46.40
2018-11-02T14:38:04.774Z,46.80
2018-11-02T14:40:38.983Z,46.70
2018-11-02T14:43:09.274Z,47.30
2018-11-02T14:45:40.285Z,48.00
2018-11-02T14:48:09.315Z,48.60
2018-11-02T14:50:39.419Z,49.00
2018-11-02T14:53:08.691Z,49.20
2018-11-02T14:55:45.804Z,49.70
2018-11-02T14:58:16.141Z,49.80
2018-11-02T15:00:45.097Z,49.30
2018-11-02T15:03:14.431Z,49.00
2018-11-02T15:05:43.823Z,49.20
2018-11-02T15:08:13.276Z,49.00
2018-11-02T15:10:42.682Z,49.70
2018-11-02T15:13:13.292Z,49.90
2018-11-02T15:15:47.553Z,50.50
2018-11-02T15:18:17.274Z,50.90
2018-11-02T15:20:46.684Z,51.40
2018-11-02T15:23:17.616Z,51.80
2018-11-02T15:25:47.252Z,52.20
2018-11-02T15:28:16.801Z,52.90
2018-11-02T15:30:47.109Z,52.90
2018-11-02T15:33:16.505Z,53.10
2018-11-02T15:35:46.083Z,53.00
2018-11-02T15:38:15.893Z,54.00
2018-11-02T15:40:53.542Z,53.80
2018-11-02T15:43:22.666Z,54.40
2018-11-02T15:45:51.878Z,54.80
2018-11-02T15:48:23.049Z,54.50
2018-11-02T15:50:52.757Z,54.20
2018-11-02T15:53:31.751Z,54.40
2018-11-02T15:56:00.910Z,55.00
2018-11-02T15:58:41.715Z,54.70
2018-11-02T16:01:15.801Z,54.70
2018-11-02T16:03:51.055Z,55.90
2018-11-02T16:06:21.032Z,55.70
2018-11-02T16:08:50.545Z,56.10
2018-11-02T16:11:21.650Z,55.90
2018-11-02T16:13:52.441Z,55.70
2018-11-02T16:16:23.060Z,56.20
2018-11-02T16:18:52.319Z,56.40
2018-11-02T16:21:23.062Z,57.00
2018-11-02T16:23:52.124Z,55.90
2018-11-02T16:26:21.734Z,56.90
2018-11-02T16:28:51.992Z,57.20
2018-11-02T16:31:21.402Z,57.40
2018-11-02T16:33:52.501Z,56.90
2018-11-02T16:36:21.729Z,57.40
2018-11-02T16:38:51.930Z,57.30
2018-11-02T16:41:23.934Z,56.90
2018-11-02T16:43:53.481Z,57.70
2018-11-02T16:46:24.402Z,58.60
2018-11-02T16:48:59.933Z,58.00
2018-11-02T16:51:30.117Z,59.60
2018-11-02T16:53:59.505Z,58.60
2018-11-02T16:56:29.413Z,59.60
2018-11-02T16:58:58.673Z,60.60
2018-11-02T17:01:28.562Z,61.00
2018-11-02T17:03:58.253Z,60.70
2018-11-02T17:06:28.577Z,61.30
2018-11-02T17:08:59.988Z,61.70
2018-11-02T17:11:29.179Z,61.40
2018-11-02T17:13:58.571Z,61.70
2018-11-02T17:16:28.930Z,62.80
2018-11-02T17:19:00.996Z,62.90
2018-11-02T17:23:59.555Z,62.50
2018-11-02T17:26:31.687Z,63.40
2018-11-02T17:29:02.226Z,64.00
2018-11-02T17:31:34.519Z,63.30
2018-11-02T17:34:28.877Z,64.10
2018-11-02T17:37:11.703Z,62.10
2018-11-02T17:40:05.988Z,63.20
2018-11-02T17:42:37.204Z,63.60
2018-11-02T17:45:10.284Z,64.50
2018-11-02T17:47:41.998Z,63.80
2018-11-02T17:50:14.145Z,62.80
2018-11-02T17:52:44.047Z,65.00
2018-11-02T17:55:14.435Z,64.70
2018-11-02T17:57:43.959Z,64.50
2018-11-02T18:00:15.116Z,65.00
2018-11-02T18:02:44.395Z,64.50
2018-11-02T18:05:14.864Z,64.50
2018-11-02T18:07:43.905Z,64.10
2018-11-02T18:10:16.494Z,62.70
2018-11-02T18:12:46.222Z,64.30
2018-11-02T18:15:17.797Z,63.70
2018-11-02T18:17:46.947Z,63.90
2018-11-02T18:20:17.247Z,64.00
2018-11-02T18:22:47.200Z,64.70
2018-11-02T18:25:16.199Z,63.80
2018-11-02T18:27:46.240Z,65.30
2018-11-02T18:30:15.645Z,65.90
2018-11-02T18:32:44.754Z,65.00
2018-11-02T18:35:13.788Z,65.00
2018-11-02T18:37:43.541Z,66.70
2018-11-02T18:40:14.692Z,65.50
2018-11-02T18:43:04.900Z,65.90
2018-11-02T18:45:35.018Z,66.40
2018-11-02T18:48:04.389Z,66.70
2018-11-02T18:50:33.284Z,67.40
2018-11-02T18:53:03.119Z,67.00
2018-11-02T18:55:32.271Z,67.90
2018-11-02T18:58:01.967Z,65.40
2018-11-02T19:00:31.114Z,67.00
2018-11-02T19:03:01.152Z,66.80
2018-11-02T19:05:31.081Z,67.20
2018-11-02T19:08:01.429Z,67.00
2018-11-02T19:10:30.399Z,68.10
2018-11-02T19:13:00.318Z,66.20
2018-11-02T19:15:42.496Z,67.60
2018-11-02T19:18:11.514Z,67.80
2018-11-02T19:20:44.314Z,68.40
2018-11-02T19:23:13.470Z,68.40
2018-11-02T19:25:43.202Z,68.60
2018-11-02T19:28:12.911Z,66.60
2018-11-02T19:30:41.970Z,68.30
2018-11-02T19:33:11.029Z,67.90
2018-11-02T19:35:40.851Z,67.50
2018-11-02T19:38:10.407Z,67.40
2018-11-02T19:40:39.516Z,67.50
2018-11-02T19:43:10.944Z,68.10
2018-11-02T19:45:41.952Z,69.70
2018-11-02T19:48:15.213Z,68.00
2018-11-02T19:50:45.461Z,69.70
2018-11-02T19:59:00.671Z,69.20
2018-11-02T20:01:30.128Z,67.90
2018-11-02T20:03:59.143Z,67.30
2018-11-02T20:06:28.921Z,67.00
2018-11-02T20:09:00.611Z,67.70
2018-11-02T20:11:30.052Z,69.10
2018-11-02T20:13:59.305Z,68.00
2018-11-02T20:16:29.332Z,68.50
2018-11-02T20:18:59.329Z,67.70
2018-11-02T20:21:30.498Z,67.70
2018-11-02T20:24:00.113Z,69.10
2018-11-02T20:26:38.073Z,68.80
2018-11-02T20:29:07.398Z,68.90
2018-11-02T20:31:36.441Z,69.10
2018-11-02T20:34:07.064Z,69.50
2018-11-02T20:36:39.627Z,70.20
2018-11-02T20:39:11.932Z,69.20
2018-11-02T20:41:45.360Z,69.90
2018-11-02T20:44:19.797Z,70.60
2018-11-02T20:46:53.717Z,70.30
2018-11-02T20:49:26.691Z,68.80
2018-11-02T20:51:55.516Z,70.50
2018-11-02T20:54:25.244Z,69.60
2018-11-02T20:56:55.688Z,69.20
2018-11-02T20:59:48.991Z,69.10
2018-11-02T21:02:20.568Z,70.40
2018-11-02T21:04:54.790Z,69.60
2018-11-02T21:07:24.892Z,70.00
2018-11-02T21:09:54.082Z,70.40
2018-11-02T21:12:23.521Z,69.60
2018-11-02T21:14:52.896Z,71.50
2018-11-02T21:17:22.297Z,71.50
2018-11-02T21:19:51.395Z,71.20
2018-11-02T21:22:20.904Z,71.90
2018-11-02T21:24:49.779Z,71.00
2018-11-02T21:27:18.964Z,70.30
2018-11-02T21:29:48.579Z,71.10
2018-11-02T21:32:18.380Z,71.20
2018-11-02T21:34:48.423Z,71.50
2018-11-02T21:37:18.075Z,71.20
2018-11-02T21:39:47.837Z,70.70
2018-11-02T21:42:17.570Z,71.50
2018-11-02T21:44:47.159Z,72.40
2018-11-02T21:47:17.375Z,71.40
2018-11-02T21:49:46.505Z,71.70
2018-11-02T21:52:16.012Z,71.30
2018-11-02T21:54:45.789Z,71.00
2018-11-02T21:57:15.015Z,72.50
2018-11-02T21:59:45.286Z,73.50
2018-11-02T22:02:14.087Z,72.90
2018-11-02T22:04:44.740Z,72.00
2018-11-02T22:07:14.621Z,72.00
2018-11-02T22:09:43.763Z,72.10
2018-11-02T22:12:19.188Z,71.90
2018-11-02T22:14:48.874Z,72.00
2018-11-02T22:17:18.238Z,72.20
2018-11-02T22:19:49.818Z,72.90
2018-11-02T22:22:19.125Z,72.50
2018-11-02T22:24:48.061Z,73.00
2018-11-02T22:27:18.715Z,71.90
2018-11-02T22:29:48.051Z,72.70
2018-11-02T22:32:17.312Z,72.00
2018-11-02T22:34:46.410Z,72.60
2018-11-02T22:37:17.960Z,72.40
2018-11-02T22:39:48.093Z,71.90
2018-11-02T22:42:17.251Z,72.30
2018-11-02T22:44:46.474Z,71.90
2018-11-02T22:47:16.709Z,71.70
2018-11-02T22:49:54.700Z,71.70
2018-11-02T22:52:28.271Z,72.30
2018-11-02T22:54:58.770Z,73.00
2018-11-02T22:57:30.424Z,71.90
2018-11-02T23:00:01.719Z,71.90
2018-11-02T23:02:31.044Z,71.50
2018-11-02T23:05:00.659Z,71.90
2018-11-02T23:07:29.804Z,72.50
2018-11-02T23:09:58.699Z,73.20
2018-11-02T23:12:27.668Z,72.60
2018-11-02T23:14:56.541Z,72.70
2018-11-02T23:17:28.486Z,73.20
2018-11-02T23:19:57.993Z,71.80
2018-11-02T23:22:26.871Z,72.70
2018-11-02T23:24:55.637Z,72.30
2018-11-02T23:27:25.507Z,72.40
2018-11-02T23:29:55.529Z,71.80
2018-11-02T23:32:24.561Z,72.00
2018-11-02T23:34:53.738Z,73.40
2018-11-02T23:37:23.209Z,73.20
2018-11-02T23:39:57.924Z,73.60
2018-11-02T23:42:28.078Z,73.50
2018-11-02T23:44:59.451Z,73.20
2018-11-02T23:47:32.022Z,73.00
2018-11-02T23:50:03.274Z,73.30
2018-11-02T23:52:38.261Z,73.10
2018-11-02T23:55:07.601Z,74.20
2018-11-02T23:57:43.937Z,74.60
